Alpine Meadows, CA

8:39 PM PDT on September 17, 2014 (GMT -0700)
Rocky Ridge | Change Station
CLOSE
Current Station
Personal Weather Station
Location: Tahoe City, CA
Elevation: 6491 ft
Nearby Weather Stations

Elev 6491 ft 39.18 °N, 120.13 °W | Updated 12 seconds ago

Clear
Clear
60.1 °F
Feels Like 60.1 °F
N
0.0
Wind Variable Wind from East
Gusts 3.0 mph

Today
High -- | Low -- °F
--% Chance of Precip.
Yesterday
High -- | Low -- °F
Precip. -- in
6:43 AM 7:05 PM
Waning Crescent, 30% visible
Pressure 29.99 in
Visibility 10.0 miles
Clouds Clear
Dew Point 38 °F
Humidity 43%
Rainfall 0.00 in
Snow Depth 0 in , 2 in , 1 in
UV 0 out of 12
Pollen 7.30 out of 12
Air Quality Not available.
Flu Activity Not available.
METAR KTRK 180315Z AUTO 20015G21KT 10SM CLR 18/02 A2999 RMK AO2

More Conditions Fewer Conditions

Pressure 29.99 in
Visibility 10.0 miles
Clouds Clear
Dew Point 38 °F
Humidity 43%
Rainfall 0.00 in
Snow Depth 0 in , 2 in , 1 in
UV 0 out of 12
Pollen 7.30 out of 12
Air Quality Not available.
Flu Activity Not available.
METAR KTRK 180315Z AUTO 20015G21KT 10SM CLR 18/02 A2999 RMK AO2

More Conditions Fewer Conditions

10-Day Weather Forecast

Almanac

Astronomy

Sep. 17, 2014 Rise Set
Actual Time 6:43 AM PDT 7:05 PM PDT
Civil Twilight 6:17 AM PDT 7:32 PM PDT
Nautical Twilight 5:45 AM PDT 8:03 PM PDT
Astronomical Twilight 5:13 AM PDT 8:35 PM PDT
Moon 12:49 AM PDT (9/17) 3:17 PM PDT (9/17)
Length of Visible Light 13h 15m
Length of Day
12h 21m
Tomorrow will be 2m 32s shorter.
Waning Crescent, 30% of the Moon is Illuminated
Today
Waning Crescent
Sep 24
New
Oct 1
First Quarter
Oct 8
Full
Oct 15
Last Quarter

Today's Extremes

State Highs State Lows

Community

WunderPhotos

Upload Photos

1,754,283 photos uploaded!

Nearby

Snow Depth

Station Depth Elevation
Spratt Creek 0 in 6200 ft
CSS Lab 2 in 6900 ft
Adin Mountain 1 in 6200 ft
Monitor Pass 0 in 8350 ft
Hagan's Meadow 0 in 8000 ft

Earthquake Activity

City Distance Mag. Time & Date
No recent earthquake activity has been reported nearby.
Minimum magnitude displayed is 2.5.

Coastal Water Temperatures

Place Temperature
No Stations Reporting

Nearby Weather Stations